Weather observations for the past three days for
Kokomo, Kokomo Municipal Airport
Metric (Imperial)
Date Time (edt) Wind (kph) Vis. (km) Weather Sky Cond. Temperature (ºC) Relative Humidity Wind Chill (°C) Heat Index (°C) Pressure Precipitation (cm)
Air Dwpt 6 hour altimeter (cm) sea level (mb) 1 hr 3 hr 6 hr
Max. Min.
07 13:56 W 20 G 33 16.09 A Few Clouds FEW060 13.9 1.1 13.9 5 42% 76.12 1015.4
07 12:56 W 19 G 33 16.09 Fair CLR 12.8 1.1 45% 76.2 1016.2
07 11:56 W 15 16.09 Fair CLR 11.7 0.6 47% 76.23 1016.6
07 10:56 W 17 16.09 Fair CLR 10.6 -1.1 45% 76.23 1016.4
07 09:56 W 20 16.09 Fair CLR 9.4 -0.6 50% 7 76.23 1016.5
07 08:56 W 13 16.09 Fair CLR 8.3 0 56% 6 76.23 1016.5
07 07:56 W 9 16.09 Fair CLR 5 0.6 6.1 2.8 73% 3 76.23 1016.3
07 06:56 W 9 16.09 Fair CLR 3.9 0.6 79% 2 76.2 1016.1
07 05:56 W 9 16.09 Fair CLR 3.9 0 76% 2 76.17 1015.9
07 04:56 W 9 16.09 Fair CLR 3.3 0 79% 1 76.17 1016.0
07 03:56 W 11 16.09 Fair CLR 3.3 0 79% 1 76.17 1016.0
07 02:56 W 13 16.09 Fair CLR 5.6 0 68% 3 76.2 1016.0
07 01:56 W 15 16.09 Fair CLR 6.1 0 12.2 6.1 65% 3 76.2 1016.0
07 00:56 W 15 16.09 Fair CLR 6.7 1.1 68% 4 76.2 1016.1
06 23:56 W 15 16.09 Fair CLR 6.7 2.2 73% 4 76.17 1015.9
06 22:56 W 13 16.09 Fair CLR 7.8 2.8 71% 6 76.15 1015.8
06 21:56 W 11 16.09 Fair CLR 8.3 3.3 71% 7 76.12 1015.4
06 20:56 W 13 16.09 Mostly Cloudy BKN070 10.6 3.3 61% 76.1 1015.0
06 19:56 W 19 16.09 Fair CLR 12.2 2.2 14.4 12.2 51% 76.05 1014.1
06 18:56 NW 19 16.09 Mostly Cloudy BKN065 12.8 2.2 49% 76.07 1014.6
06 17:56 W 24 16.09 A Few Clouds FEW070 13.3 2.2 47% 76.07 1014.4
06 16:56 NW 13 G 30 16.09 Mostly Cloudy BKN060 13.3 0.6 42% 76.05 1014.2
06 15:56 NW 15 16.09 Overcast SCT050 OVC110 12.8 1.7 47% 76.07 1014.4
06 14:56 NW 15 16.09 Overcast OVC100 12.8 1.7 47% 76.07 1014.6
06 13:56 W 13 16.09 Overcast OVC100 12.2 2.2 12.8 8.3 51% 76.1 1014.8
06 12:56 W 6 16.09 A Few Clouds FEW100 12.2 2.2 51% 76.07 1014.6
06 11:56 Calm 16.09 Fair CLR 11.7 1.7 51% 76.07 1014.8
06 09:56 N 7 16.09 Fair CLR 11.1 5 66% 76.05 1014.2
06 08:56 N 6 16.09 Fair CLR 10 6.1 77% 76 1013.4
06 07:56 NW 11 16.09 Fair CLR 8.3 7.2 8.3 6.7 93% 7 75.95 1012.7 0.03
06 06:56 NW 7 16.09 Partly Cloudy SCT080 7.2 6.7 97% 6 75.84 1011.4
06 05:56 NW 6 16.09 Overcast OVC075 7.8 6.7 93% 75.82 1010.9
06 04:56 W 6 16.09 Overcast OVC065 7.8 7.8 100% 75.79 1010.8 0.03
06 03:56 Calm 16.09 Overcast OVC060 7.8 7.2 96% 75.74 1010.0
06 02:56 Calm 16.09 Mostly Cloudy BKN110 7.8 6.1 89% 75.72 1009.6 0.03
06 01:56 NW 6 14.48 Light Rain FEW008 BKN041 OVC090 8.3 8.3 8.3 7.8 100% 75.79 1010.5 0.08 0.69
06 00:56 Calm 14.48 Light Rain SCT008 OVC060 8.3 8.3 100% 75.79 1010.7 0.1
05 23:56 Calm 14.48 Light Rain FEW003 BKN050 OVC090 8.3 8.3 100% 75.74 1010.3 0.18
05 22:56 Calm 11.27 Light Rain FEW050 BKN070 OVC085 8.3 8.3 100% 75.74 1010.3 0.2 0.33
05 21:56 NE 7 16.09 Light Rain SCT006 OVC070 8.3 8.3 100% 7 75.69 1009.4 0.08
05 20:56 Calm 16.09 Light Rain SCT006 OVC022 7.8 7.8 100% 75.69 1009.4 0.05
05 19:56 E 6 16.09 Light Rain FEW060 OVC080 8.3 7.8 10 7.8 97% 75.67 1008.9 0.15 0.43
05 18:56 Calm 16.09 Light Rain FEW040 OVC070 8.3 7.8 97% 75.69 1009.4 0.03
05 16:56 N 13 16.09 Light Rain FEW008 OVC031 8.3 7.8 97% 6 75.74 1009.8 0.08 0.15
05 15:56 N 11 16.09 Light Rain OVC025 9.4 7.8 90% 8 75.69 1009.3
05 14:56 N 15 16.09 Overcast OVC023 9.4 8.3 93% 7 75.69 1009.2 0.08
05 13:56 N 9 16.09 Light Rain OVC027 9.4 7.2 14.4 9.4 86% 8 75.72 1009.7 0.18 0.3
05 12:56 NE 6 11.27 Light Rain FEW035 BKN055 OVC070 10 5.6 74% 75.69 1009.2 0.13
05 11:56 N 17 16.09 Light Rain OVC031 11.7 6.7 72% 75.69 1009.0
05 10:56 N 19 16.09 Light Rain OVC037 11.7 6.7 72% 75.69 1009.2
05 09:56 W 26 16.09 Overcast BKN013 OVC028 13.9 12.8 93% 75.62 1008.0
05 08:56 SW 24 16.09 Mostly Cloudy FEW011 BKN028 13.9 12.8 93% 75.57 1007.1
05 07:56 SW 15 16.09 A Few Clouds FEW021 13.3 12.8 14.4 12.8 97% 75.51 1006.4 0.18
05 06:56 SW 17 16.09 Partly Cloudy SCT095 12.8 11.7 93% 75.51 1006.5
05 05:56 SW 17 16.09 Fair CLR 12.8 11.7 93% 75.44 1005.6
05 04:56 NW 13 16.09 Fair CLR 13.3 12.2 93% 75.39 1004.6 0.18
05 03:56 S 26 G 44 16.09 Light Rain BKN095 13.9 11.7 87% 75.31 1003.8 0.03
05 02:56 S 26 G 35 16.09 Light Rain FEW075 OVC095 13.9 12.2 90% 75.39 1004.6 0.15
05 01:56 SW 17 16.09 Rain FEW050 OVC080 13.3 13.3 22.8 13.3 100% 75.51 1006.3 0.33 0.51
05 00:56 NW 22 16.09 Thunderstorm in Vicinity Rain SCT043 OVC055 14.4 12.2 87% 75.46 1005.9 0.18
04 23:56 NW 28 16.09 Overcast OVC070 19.4 10 55% 75.31 1003.4
04 22:56 SW 26 16.09 Mostly Cloudy BKN075 20 9.4 51% 75.23 1002.5
04 21:56 SW 24 16.09 Partly Cloudy SCT085 20 9.4 51% 75.23 1002.7
04 20:56 SW 19 16.09 Overcast OVC090 22.2 8.9 43% 75.21 1002.4
04 19:56 SW 31 G 41 16.09 Mostly Cloudy BKN100 22.8 9.4 24.4 22.2 43% 75.16 1002.0
04 18:56 SW 39 G 52 16.09 Mostly Cloudy and Breezy FEW050 BKN100 22.8 12.2 51% 75.23 1003.0
04 17:56 SW 28 G 43 16.09 Mostly Cloudy BKN095 BKN120 22.2 12.2 53% 75.29 1003.5
04 16:56 SW 37 G 50 16.09 Fair and Breezy CLR 22.8 10.6 46% 75.34 1004.1
04 15:56 SW 37 G 46 16.09 Mostly Cloudy and Breezy BKN100 23.9 11.1 45% 25 75.31 1003.9
04 14:56 SW 52 G 69 16.09 Partly Cloudy and Windy SCT095 23.3 10.6 45% 75.36 1004.6
Date Time (edt) Wind (kph) Vis. (km) Weather Sky Cond. Air Dwpt Max. Min. Relative Humidity Wind Chill (°C) Heat Index (°C) altimeter (cm) sea level (mb) 1 hr 3 hr 6 hr
6 hour
Temperature (ºC) Pressure Precipitation (cm)